Time;durP1;ratioP1;P1;durP2;ratioP2;P2;SDS_P1;SDS_P2;PMS_P1;PMS_P2;Temp;Humidity;BMP_temperature;BMP_pressure;BME280_temperature;BME280_humidity;BME280_pressure;Samples;Min_cycle;Max_cycle;Signal;HPM_P1;HPM_P2
2023/10/13 00:01:35;;;;;;;0.00;0.00;;;;;;;;;;5040708;28;20040;-73
2023/10/13 00:04:05;;;;;;;0.08;0.08;;;;;;;;;;5040766;28;20132;-73
2023/10/13 00:06:33;;;;;;;0.00;0.00;;;;;;;;;;5036872;28;20076;-73
2023/10/13 00:09:00;;;;;;;0.03;0.03;;;;;;;;;;5035845;28;20041;-73
2023/10/13 00:11:28;;;;;;;0.00;0.00;;;;;;;;;;5038242;28;20037;-73
2023/10/13 00:13:55;;;;;;;0.00;0.00;;;;;;;;;;5037643;28;20044;-73
2023/10/13 00:16:27;;;;;;;3.90;3.70;;;;;;;;;;5032229;28;20459;-73
2023/10/13 00:18:57;;;;;;;0.20;0.20;;;;;;;;;;5041922;28;20441;-73
2023/10/13 00:21:31;;;;;;;0.00;0.00;;;;;;;;;;5042474;28;20814;-73
2023/10/13 00:24:05;;;;;;;0.00;0.00;;;;;;;;;;5039131;28;20499;-75
2023/10/13 00:26:36;;;;;;;1.10;1.00;;;;;;;;;;5039705;28;20503;-74
2023/10/13 00:31:42;;;;;;;0.15;0.15;;;;;;;;;;5042000;28;20037;-73
2023/10/13 00:34:29;;;;;;;8.65;1.63;;;;;;;;;;5034671;28;20059;-73
2023/10/13 00:39:45;;;;;;;0.00;0.00;;;;;;;;;;5042876;28;20465;-74
2023/10/13 00:42:25;;;;;;;13.02;8.98;;;;;;;;;;5043878;28;20443;-75
2023/10/13 00:44:54;;;;;;;0.57;0.57;;;;;;;;;;5041279;28;20489;-73
2023/10/13 00:47:49;;;;;;;0.47;0.32;;;;;;;;;;5040375;28;20120;-73
2023/10/13 00:50:14;;;;;;;0.00;0.00;;;;;;;;;;5040970;28;20494;-74
2023/10/13 00:52:42;;;;;;;;;;;;;;;;;;5056274;28;20511;-73
2023/10/13 00:55:11;;;;;;;0.08;0.08;;;;;;;;;;5042355;28;19925;-74
2023/10/13 00:57:40;;;;;;;1.90;0.88;;;;;;;;;;5038468;28;20083;-75
2023/10/13 01:00:25;;;;;;;0.13;0.13;;;;;;;;;;5041242;28;20053;-75
2023/10/13 01:03:05;;;;;;;0.20;0.20;;;;;;;;;;5035564;28;20081;-74
2023/10/13 01:05:33;;;;;;;0.17;0.15;;;;;;;;;;5036934;28;20175;-74
2023/10/13 01:08:01;;;;;;;0.00;0.00;;;;;;;;;;5043752;28;20120;-74
2023/10/13 01:10:32;;;;;;;0.65;0.43;;;;;;;;;;5041442;28;20049;-73
2023/10/13 01:13:02;;;;;;;0.10;0.10;;;;;;;;;;5039369;28;20045;-73
2023/10/13 01:15:32;;;;;;;0.20;0.20;;;;;;;;;;5039583;28;20502;-73
2023/10/13 01:18:14;;;;;;;0.10;0.10;;;;;;;;;;5043381;28;20395;-74
2023/10/13 01:20:52;;;;;;;0.10;0.10;;;;;;;;;;5036362;28;20124;-74
2023/10/13 01:23:24;;;;;;;0.40;0.40;;;;;;;;;;5041396;28;20045;-74
2023/10/13 01:25:53;;;;;;;0.00;0.00;;;;;;;;;;5034683;28;20279;-73
2023/10/13 01:28:21;;;;;;;0.32;0.32;;;;;;;;;;5038149;28;20063;-73
2023/10/13 01:30:53;;;;;;;0.00;0.00;;;;;;;;;;5038188;28;20050;-73
2023/10/13 01:33:27;;;;;;;0.00;0.00;;;;;;;;;;5042295;28;20055;-73
2023/10/13 01:35:59;;;;;;;0.03;0.03;;;;;;;;;;5042655;28;20517;-73
2023/10/13 01:38:27;;;;;;;0.00;0.00;;;;;;;;;;5040252;28;20095;-73
2023/10/13 01:40:56;;;;;;;0.00;0.00;;;;;;;;;;5043118;28;20545;-75
2023/10/13 01:43:24;;;;;;;0.10;0.10;;;;;;;;;;5042658;28;20486;-73
2023/10/13 01:45:53;;;;;;;0.00;0.00;;;;;;;;;;5045380;28;20059;-73
2023/10/13 01:48:21;;;;;;;9.95;8.48;;;;;;;;;;5042455;28;20240;-76
2023/10/13 01:50:55;;;;;;;0.00;0.00;;;;;;;;;;5044120;28;20514;-74
2023/10/13 01:53:23;;;;;;;0.00;0.00;;;;;;;;;;5036891;28;20081;-74
2023/10/13 01:55:51;;;;;;;0.00;0.00;;;;;;;;;;5038634;28;20053;-74
2023/10/13 01:58:22;;;;;;;0.00;0.00;;;;;;;;;;5047540;28;20040;-73
2023/10/13 02:00:50;;;;;;;0.28;0.28;;;;;;;;;;5039985;28;20079;-73
2023/10/13 02:03:18;;;;;;;0.05;0.05;;;;;;;;;;5041537;28;20131;-73
2023/10/13 02:05:47;;;;;;;0.43;0.43;;;;;;;;;;5047632;28;20499;-74
2023/10/13 02:08:25;;;;;;;0.10;0.10;;;;;;;;;;5033401;28;20045;-73
2023/10/13 02:10:55;;;;;;;0.00;0.00;;;;;;;;;;5038501;28;20057;-74
2023/10/13 02:13:23;;;;;;;0.00;0.00;;;;;;;;;;5043470;28;20053;-73
2023/10/13 02:16:03;;;;;;;11.07;8.18;;;;;;;;;;5042797;28;20044;-75
2023/10/13 02:18:41;;;;;;;0.13;0.13;;;;;;;;;;5036739;28;20041;-73
2023/10/13 02:21:12;;;;;;;0.50;0.50;;;;;;;;;;5040781;28;20551;-74
2023/10/13 02:23:59;;;;;;;0.00;0.00;;;;;;;;;;5043922;28;20057;-73
2023/10/13 02:26:30;;;;;;;0.00;0.00;;;;;;;;;;5053180;28;20120;-73
2023/10/13 02:29:06;;;;;;;0.00;0.00;;;;;;;;;;5040019;28;20049;-74
2023/10/13 02:31:37;;;;;;;0.10;0.10;;;;;;;;;;5043558;28;20053;-73
2023/10/13 02:34:09;;;;;;;0.00;0.00;;;;;;;;;;5036596;28;20045;-73
2023/10/13 02:36:37;;;;;;;0.00;0.00;;;;;;;;;;5041220;28;20052;-73
2023/10/13 02:39:07;;;;;;;0.00;0.00;;;;;;;;;;5046697;28;20044;-73
2023/10/13 02:41:38;;;;;;;0.05;0.05;;;;;;;;;;5043047;28;20053;-74
2023/10/13 02:44:06;;;;;;;0.10;0.10;;;;;;;;;;5034777;28;20041;-73
2023/10/13 02:46:39;;;;;;;0.10;0.10;;;;;;;;;;5042148;28;20052;-73
2023/10/13 02:49:10;;;;;;;0.00;0.00;;;;;;;;;;5048554;28;20049;-74
2023/10/13 02:51:41;;;;;;;0.10;0.10;;;;;;;;;;5049198;28;20528;-72
2023/10/13 02:54:20;;;;;;;0.30;0.30;;;;;;;;;;4980766;28;20378;-74
2023/10/13 02:56:56;;;;;;;0.00;0.00;;;;;;;;;;4948032;28;20051;-74
2023/10/13 02:59:46;;;;;;;0.82;0.77;;;;;;;;;;4969374;28;20049;-74
2023/10/13 03:04:50;;;;;;;5.32;5.03;;;;;;;;;;4950496;28;20464;-74
2023/10/13 03:07:28;;;;;;;0.05;0.05;;;;;;;;;;4966230;28;20078;-75
2023/10/13 03:10:00;;;;;;;0.35;0.28;;;;;;;;;;4968171;28;20053;-75
2023/10/13 03:12:33;;;;;;;0.38;0.38;;;;;;;;;;4961732;28;20074;-75
2023/10/13 03:15:17;;;;;;;0.08;0.08;;;;;;;;;;4945286;28;20061;-75
2023/10/13 03:17:46;;;;;;;0.82;0.82;;;;;;;;;;4968167;28;20508;-75
2023/10/13 03:20:15;;;;;;;0.20;0.10;;;;;;;;;;4945355;28;20507;-75
2023/10/13 03:22:46;;;;;;;0.03;0.03;;;;;;;;;;4969250;28;20362;-74
2023/10/13 03:25:24;;;;;;;0.10;0.10;;;;;;;;;;4963133;28;20039;-75
2023/10/13 03:30:21;;;;;;;0.10;0.10;;;;;;;;;;4961584;28;20049;-75
2023/10/13 03:32:54;;;;;;;0.63;0.63;;;;;;;;;;4964232;28;20050;-75
2023/10/13 03:35:24;;;;;;;1.13;1.10;;;;;;;;;;4967488;28;20047;-74
2023/10/13 03:37:52;;;;;;;0.23;0.23;;;;;;;;;;4966701;28;20059;-75
2023/10/13 03:43:06;;;;;;;0.47;0.47;;;;;;;;;;4964857;28;20477;-75
2023/10/13 03:45:39;;;;;;;0.20;0.20;;;;;;;;;;4962866;28;20053;-75
2023/10/13 03:51:03;;;;;;;0.10;0.10;;;;;;;;;;4965214;28;20050;-74
2023/10/13 03:53:35;;;;;;;0.10;0.10;;;;;;;;;;4965234;28;20101;-75
2023/10/13 03:56:14;;;;;;;0.10;0.10;;;;;;;;;;4966567;28;20533;-75
2023/10/13 03:58:45;;;;;;;0.00;0.00;;;;;;;;;;4966202;28;20097;-75
2023/10/13 04:01:17;;;;;;;0.00;0.00;;;;;;;;;;4966655;28;20504;-75
2023/10/13 04:03:57;;;;;;;0.45;0.10;;;;;;;;;;4965295;28;20054;-74
2023/10/13 04:17:22;;;;;;;0.00;0.00;;;;;;;;;;4963749;28;20415;-74
2023/10/13 04:33:43;;;;;;;14.65;5.93;;;;;;;;;;4962875;28;20497;-74
2023/10/13 04:41:41;;;;;;;0.75;0.73;;;;;;;;;;4962942;28;20683;-75
2023/10/13 04:49:52;;;;;;;0.20;0.20;;;;;;;;;;4962062;28;20472;-75
2023/10/13 04:52:45;;;;;;;0.95;0.75;;;;;;;;;;4961658;28;20371;-75
2023/10/13 04:58:27;;;;;;;2.20;1.67;;;;;;;;;;4963712;28;20055;-74
2023/10/13 06:28:45;;;;;;;0.40;0.40;;;;;;;;;;4964669;28;20059;-75
2023/10/13 06:31:22;;;;;;;20.70;19.02;;;;;;;;;;4951731;28;20043;-75
2023/10/13 06:33:50;;;;;;;0.10;0.10;;;;;;;;;;4960089;28;20055;-75
2023/10/13 06:36:18;;;;;;;0.10;0.10;;;;;;;;;;4965251;28;20078;-75
2023/10/13 06:38:54;;;;;;;28.05;26.40;;;;;;;;;;4966954;28;20524;-75
2023/10/13 06:41:30;;;;;;;0.20;0.20;;;;;;;;;;4964124;28;20062;-75
2023/10/13 06:44:05;;;;;;;0.40;0.40;;;;;;;;;;4965241;28;20269;-75
2023/10/13 06:46:34;;;;;;;4.40;4.07;;;;;;;;;;4959962;28;20049;-75
2023/10/13 06:49:02;;;;;;;0.80;0.75;;;;;;;;;;4966339;28;20142;-75
2023/10/13 06:51:37;;;;;;;0.15;0.15;;;;;;;;;;4961250;28;20049;-75
2023/10/13 06:54:11;;;;;;;0.43;0.43;;;;;;;;;;4964104;28;20043;-75
2023/10/13 06:56:40;;;;;;;7.40;6.75;;;;;;;;;;4968935;28;20050;-75
2023/10/13 06:59:07;;;;;;;0.13;0.13;;;;;;;;;;4967218;28;20102;-75
2023/10/13 07:01:38;;;;;;;0.25;0.25;;;;;;;;;;4947719;28;20081;-75
2023/10/13 07:04:13;;;;;;;2.55;0.30;;;;;;;;;;4962260;28;20499;-75
2023/10/13 07:06:48;;;;;;;3.05;0.77;;;;;;;;;;4962262;28;20078;-75
2023/10/13 07:12:16;;;;;;;0.50;0.50;;;;;;;;;;4962046;28;20057;-75
2023/10/13 07:14:43;;;;;;;;;;;;;;;;;;4960709;28;20162;-75
2023/10/13 07:17:11;;;;;;;0.38;0.38;;;;;;;;;;4966322;28;19926;-76
2023/10/13 07:19:53;;;;;;;0.10;0.10;;;;;;;;;;4956117;28;20059;-75
2023/10/13 07:22:21;;;;;;;5.00;0.35;;;;;;;;;;4957332;28;20051;-77
2023/10/13 07:24:49;;;;;;;0.52;0.52;;;;;;;;;;4964982;28;20066;-75
2023/10/13 07:27:22;;;;;;;0.28;0.28;;;;;;;;;;4966443;28;20101;-76
2023/10/13 07:30:26;;;;;;;0.10;0.10;;;;;;;;;;4965030;28;20461;-76
2023/10/13 07:32:50;;;;;;;0.00;0.00;;;;;;;;;;4958090;28;20050;-77
2023/10/13 07:35:19;;;;;;;0.03;0.03;;;;;;;;;;4963191;28;20054;-75
2023/10/13 07:37:52;;;;;;;0.55;0.55;;;;;;;;;;4963633;28;20512;-75
2023/10/13 07:43:03;;;;;;;0.00;0.00;;;;;;;;;;4953034;28;20057;-76
2023/10/13 07:45:36;;;;;;;0.00;0.00;;;;;;;;;;4962706;28;20125;-75
2023/10/13 07:48:13;;;;;;;1.65;0.57;;;;;;;;;;4960873;28;20066;-75
2023/10/13 07:50:45;;;;;;;0.00;0.00;;;;;;;;;;4967163;28;20062;-75
2023/10/13 07:53:20;;;;;;;0.50;0.50;;;;;;;;;;4963737;28;20051;-75
2023/10/13 07:55:47;;;;;;;0.00;0.00;;;;;;;;;;4961862;28;20576;-75
2023/10/13 07:58:15;;;;;;;0.00;0.00;;;;;;;;;;4963421;28;20071;-76
2023/10/13 08:08:37;;;;;;;3.13;2.92;;;;;;;;;;4966115;28;20129;-75
2023/10/13 08:13:59;;;;;;;0.10;0.10;;;;;;;;;;4967045;28;20071;-75
2023/10/13 08:16:47;;;;;;;0.65;0.65;;;;;;;;;;4968054;28;20051;-75
2023/10/13 08:19:16;;;;;;;0.00;0.00;;;;;;;;;;4960672;28;20043;-75
2023/10/13 08:21:57;;;;;;;0.35;0.32;;;;;;;;;;4967208;28;20102;-75
2023/10/13 08:24:29;;;;;;;0.10;0.10;;;;;;;;;;4958030;28;20215;-76
2023/10/13 08:48:14;;;;;;;;;;;;;;;;;;4967364;28;20098;-75
2023/10/13 08:53:28;;;;;;;0.00;0.00;;;;;;;;;;5018539;22;20056;-70
2023/10/13 08:59:04;;;;;;;0.15;0.15;;;;;;;;;;5024672;28;20056;-69
2023/10/13 09:09:34;;;;;;;0.30;0.28;;;;;;;;;;5020144;28;20483;-69
2023/10/13 09:12:14;;;;;;;0.43;0.43;;;;;;;;;;5028587;28;20081;-69
2023/10/13 09:14:48;;;;;;;0.00;0.00;;;;;;;;;;5025058;28;20050;-70
2023/10/13 09:17:34;;;;;;;0.85;0.85;;;;;;;;;;5026876;28;20130;-69
2023/10/13 09:23:12;;;;;;;0.47;0.47;;;;;;;;;;5024130;28;20152;-70
2023/10/13 09:25:53;;;;;;;0.20;0.20;;;;;;;;;;5023313;28;20048;-70
2023/10/13 09:28:22;;;;;;;0.10;0.10;;;;;;;;;;5024174;28;20491;-70
2023/10/13 09:30:53;;;;;;;0.00;0.00;;;;;;;;;;5017928;28;20479;-69
2023/10/13 09:33:32;;;;;;;0.10;0.10;;;;;;;;;;5023873;28;20048;-70
2023/10/13 09:36:00;;;;;;;0.00;0.00;;;;;;;;;;5020447;28;20055;-70
2023/10/13 09:38:34;;;;;;;0.00;0.00;;;;;;;;;;5020909;28;20099;-70
2023/10/13 09:41:26;;;;;;;4.80;4.55;;;;;;;;;;5020605;28;20955;-70
2023/10/13 09:43:57;;;;;;;0.00;0.00;;;;;;;;;;5018689;28;20726;-70
2023/10/13 09:46:28;;;;;;;0.00;0.00;;;;;;;;;;5020654;28;20076;-70
2023/10/13 09:49:08;;;;;;;0.00;0.00;;;;;;;;;;5020544;28;20046;-69
2023/10/13 09:51:35;;;;;;;0.68;0.40;;;;;;;;;;5021976;28;20112;-70
2023/10/13 09:54:16;;;;;;;0.08;0.08;;;;;;;;;;5019917;28;20525;-70
2023/10/13 09:57:16;;;;;;;0.00;0.00;;;;;;;;;;5023123;28;20526;-69
2023/10/13 10:00:05;;;;;;;0.10;0.10;;;;;;;;;;5020080;28;20465;-70
2023/10/13 10:02:43;;;;;;;4.07;3.88;;;;;;;;;;5023075;28;20073;-69
2023/10/13 10:05:12;;;;;;;0.08;0.08;;;;;;;;;;5024560;28;20056;-70
2023/10/13 10:07:40;;;;;;;0.57;0.57;;;;;;;;;;5016322;28;20045;-69
2023/10/13 10:10:11;;;;;;;0.20;0.20;;;;;;;;;;5016351;28;20052;-69
2023/10/13 10:12:42;;;;;;;0.10;0.10;;;;;;;;;;5013242;28;20050;-69
2023/10/13 10:15:43;;;;;;;0.00;0.00;;;;;;;;;;5024006;28;20415;-69
2023/10/13 10:18:27;;;;;;;0.13;0.13;;;;;;;;;;5012705;28;20045;-69
2023/10/13 10:21:07;;;;;;;0.38;0.38;;;;;;;;;;5016013;28;20042;-70
2023/10/13 10:23:44;;;;;;;0.00;0.00;;;;;;;;;;5016454;28;20052;-69
2023/10/13 10:26:19;;;;;;;0.10;0.10;;;;;;;;;;5011407;28;20466;-69
2023/10/13 10:28:47;;;;;;;0.08;0.08;;;;;;;;;;5016036;28;20049;-70
2023/10/13 10:31:17;;;;;;;0.00;0.00;;;;;;;;;;5009083;28;20124;-71
2023/10/13 10:33:46;;;;;;;16.85;15.20;;;;;;;;;;5016739;28;20052;-70
2023/10/13 10:36:14;;;;;;;0.00;0.00;;;;;;;;;;5009120;28;20049;-71
2023/10/13 10:38:58;;;;;;;0.00;0.00;;;;;;;;;;5005418;28;20104;-70
2023/10/13 10:44:37;;;;;;;1.00;1.00;;;;;;;;;;5012503;28;20154;-70
2023/10/13 10:47:11;;;;;;;0.00;0.00;;;;;;;;;;5010731;28;20037;-70
2023/10/13 10:49:40;;;;;;;0.00;0.00;;;;;;;;;;5029500;28;20057;-70
2023/10/13 10:52:18;;;;;;;0.00;0.00;;;;;;;;;;5028473;28;20497;-70
2023/10/13 10:54:51;;;;;;;0.03;0.03;;;;;;;;;;5020933;28;20173;-70
2023/10/13 10:57:19;;;;;;;0.03;0.03;;;;;;;;;;5022813;28;20768;-70
2023/10/13 10:59:47;;;;;;;1.85;1.75;;;;;;;;;;5019699;28;20049;-70
2023/10/13 11:02:25;;;;;;;7.57;6.85;;;;;;;;;;5021314;28;20057;-70
2023/10/13 11:04:53;;;;;;;0.08;0.08;;;;;;;;;;5019894;28;20184;-70
2023/10/13 11:07:25;;;;;;;0.20;0.20;;;;;;;;;;5028695;28;20043;-70
2023/10/13 11:09:53;;;;;;;0.00;0.00;;;;;;;;;;5029482;28;20046;-70
2023/10/13 11:12:24;;;;;;;0.00;0.00;;;;;;;;;;5024668;28;20043;-69
2023/10/13 11:15:02;;;;;;;0.00;0.00;;;;;;;;;;5032879;28;20053;-70
2023/10/13 11:17:42;;;;;;;0.00;0.00;;;;;;;;;;5035172;28;20056;-70
2023/10/13 11:20:17;;;;;;;0.00;0.00;;;;;;;;;;5034036;28;20049;-70
2023/10/13 11:22:49;;;;;;;0.00;0.00;;;;;;;;;;5024007;28;20491;-69
2023/10/13 11:25:29;;;;;;;0.00;0.00;;;;;;;;;;5032646;28;20099;-71
2023/10/13 11:27:59;;;;;;;0.00;0.00;;;;;;;;;;5023840;28;20133;-70
2023/10/13 11:30:40;;;;;;;0.00;0.00;;;;;;;;;;5027113;28;20042;-70
2023/10/13 11:33:09;;;;;;;0.08;0.08;;;;;;;;;;5024054;28;20781;-70
2023/10/13 11:38:25;;;;;;;0.00;0.00;;;;;;;;;;5022180;28;20045;-70
2023/10/13 11:48:42;;;;;;;0.05;0.05;;;;;;;;;;5022947;28;20125;-71
2023/10/13 11:51:17;;;;;;;0.00;0.00;;;;;;;;;;5021632;28;20115;-70
2023/10/13 11:53:47;;;;;;;0.00;0.00;;;;;;;;;;5019635;28;20112;-70
2023/10/13 11:56:17;;;;;;;0.00;0.00;;;;;;;;;;5022537;28;20057;-71
2023/10/13 11:58:45;;;;;;;0.00;0.00;;;;;;;;;;5012983;28;20141;-71
2023/10/13 12:09:41;;;;;;;0.00;0.00;;;;;;;;;;5019334;28;20045;-70
2023/10/13 12:12:04;;;;;;;0.15;0.15;;;;;;;;;;5020552;28;20095;-68
2023/10/13 12:14:52;;;;;;;0.00;0.00;;;;;;;;;;5016318;28;20056;-70
2023/10/13 12:17:27;;;;;;;0.10;0.10;;;;;;;;;;5026031;28;20372;-69
2023/10/13 12:19:56;;;;;;;0.00;0.00;;;;;;;;;;5022156;28;20118;-69
2023/10/13 12:22:39;;;;;;;0.03;0.03;;;;;;;;;;5027607;28;20514;-69
2023/10/13 12:25:25;;;;;;;0.00;0.00;;;;;;;;;;5024475;28;20120;-70
2023/10/13 12:27:57;;;;;;;0.17;0.10;;;;;;;;;;5023926;28;20075;-70
2023/10/13 12:33:11;;;;;;;0.00;0.00;;;;;;;;;;5029378;28;20061;-70
2023/10/13 12:35:58;;;;;;;0.00;0.00;;;;;;;;;;5021738;28;20049;-70
2023/10/13 12:52:16;;;;;;;1.65;0.65;;;;;;;;;;5026961;28;20034;-71
2023/10/13 12:54:47;;;;;;;0.00;0.00;;;;;;;;;;5019355;28;20106;-71
2023/10/13 12:57:15;;;;;;;0.00;0.00;;;;;;;;;;5023567;28;20065;-70
2023/10/13 12:59:43;;;;;;;0.00;0.00;;;;;;;;;;5018582;28;20815;-71
2023/10/13 13:02:15;;;;;;;0.00;0.00;;;;;;;;;;5015230;28;20049;-70
2023/10/13 13:04:48;;;;;;;1.55;1.08;;;;;;;;;;5016262;28;20053;-71
2023/10/13 13:07:15;;;;;;;0.00;0.00;;;;;;;;;;5015902;28;20045;-71
2023/10/13 13:09:43;;;;;;;0.00;0.00;;;;;;;;;;5014018;28;20046;-71
2023/10/13 13:12:12;;;;;;;0.00;0.00;;;;;;;;;;5014130;28;20050;-71
2023/10/13 13:14:46;;;;;;;0.68;0.30;;;;;;;;;;5015354;28;20050;-71
2023/10/13 13:17:14;;;;;;;0.00;0.00;;;;;;;;;;5009296;28;20140;-70
2023/10/13 13:19:41;;;;;;;0.00;0.00;;;;;;;;;;5016791;28;20054;-71
2023/10/13 13:22:11;;;;;;;0.00;0.00;;;;;;;;;;5020357;28;20479;-71
2023/10/13 13:24:47;;;;;;;0.00;0.00;;;;;;;;;;5018013;28;20096;-71
2023/10/13 13:27:19;;;;;;;0.10;0.10;;;;;;;;;;5020252;28;20041;-70
2023/10/13 13:29:47;;;;;;;0.00;0.00;;;;;;;;;;5014351;28;20049;-70
2023/10/13 13:32:28;;;;;;;0.00;0.00;;;;;;;;;;5019382;28;20046;-71
2023/10/13 13:35:07;;;;;;;0.05;0.05;;;;;;;;;;5016339;28;20073;-71
2023/10/13 13:37:37;;;;;;;0.00;0.00;;;;;;;;;;5017168;28;20059;-70
2023/10/13 13:40:15;;;;;;;0.00;0.00;;;;;;;;;;5022902;28;20049;-71
2023/10/13 13:42:43;;;;;;;0.00;0.00;;;;;;;;;;5021523;28;20080;-71
2023/10/13 13:45:29;;;;;;;0.20;0.08;;;;;;;;;;5018066;28;20473;-71
2023/10/13 13:47:57;;;;;;;0.00;0.00;;;;;;;;;;5014691;28;20041;-71
2023/10/13 13:50:29;;;;;;;0.00;0.00;;;;;;;;;;5018797;28;20482;-71
2023/10/13 13:52:57;;;;;;;0.00;0.00;;;;;;;;;;5018677;28;20057;-71
2023/10/13 13:55:28;;;;;;;0.00;0.00;;;;;;;;;;5020233;28;20054;-70
2023/10/13 13:57:57;;;;;;;0.00;0.00;;;;;;;;;;5022150;28;20053;-70
2023/10/13 14:00:37;;;;;;;0.00;0.00;;;;;;;;;;5019362;28;20491;-71
2023/10/13 14:03:06;;;;;;;0.03;0.03;;;;;;;;;;5018266;28;20063;-70
2023/10/13 14:05:33;;;;;;;0.00;0.00;;;;;;;;;;5022922;28;20127;-71
2023/10/13 14:08:01;;;;;;;0.00;0.00;;;;;;;;;;5023394;28;20057;-71
2023/10/13 14:10:32;;;;;;;0.10;0.10;;;;;;;;;;5022131;28;20112;-70
2023/10/13 14:13:15;;;;;;;0.63;0.40;;;;;;;;;;5017298;28;20100;-71
2023/10/13 14:15:46;;;;;;;0.25;0.20;;;;;;;;;;5021816;28;20057;-71
2023/10/13 14:18:16;;;;;;;0.00;0.00;;;;;;;;;;5023254;28;20136;-71
2023/10/13 14:20:45;;;;;;;0.00;0.00;;;;;;;;;;5015801;28;20503;-71
2023/10/13 14:23:12;;;;;;;0.00;0.00;;;;;;;;;;5024849;28;20045;-70
2023/10/13 14:25:44;;;;;;;0.00;0.00;;;;;;;;;;5013504;28;20049;-71
2023/10/13 14:28:17;;;;;;;0.00;0.00;;;;;;;;;;5016369;28;21477;-71
2023/10/13 14:30:44;;;;;;;0.00;0.00;;;;;;;;;;5021550;28;20128;-71
2023/10/13 14:33:12;;;;;;;0.32;0.32;;;;;;;;;;5020133;28;20045;-70
2023/10/13 14:35:40;;;;;;;0.20;0.20;;;;;;;;;;5020184;28;20045;-71
2023/10/13 14:38:08;;;;;;;0.00;0.00;;;;;;;;;;5024430;28;20518;-71
2023/10/13 14:40:35;;;;;;;0.08;0.08;;;;;;;;;;5022408;28;20620;-71
2023/10/13 14:43:04;;;;;;;0.00;0.00;;;;;;;;;;5026431;28;20068;-71
2023/10/13 14:45:33;;;;;;;0.20;0.20;;;;;;;;;;5022785;28;20077;-71
2023/10/13 14:48:01;;;;;;;0.00;0.00;;;;;;;;;;5028030;28;20511;-71
2023/10/13 14:50:28;;;;;;;0.30;0.20;;;;;;;;;;5022716;28;20145;-71
2023/10/13 14:52:57;;;;;;;0.00;0.00;;;;;;;;;;5028355;28;20121;-71
2023/10/13 14:55:37;;;;;;;0.00;0.00;;;;;;;;;;5017479;28;20048;-71
2023/10/13 14:58:07;;;;;;;0.00;0.00;;;;;;;;;;5023763;28;20103;-71
2023/10/13 15:00:35;;;;;;;0.00;0.00;;;;;;;;;;5023240;28;20578;-71
2023/10/13 15:03:06;;;;;;;0.00;0.00;;;;;;;;;;5028551;28;21037;-70
2023/10/13 15:05:38;;;;;;;2.63;2.42;;;;;;;;;;5026734;28;20049;-71
2023/10/13 15:08:06;;;;;;;0.00;0.00;;;;;;;;;;5022705;28;20419;-71
2023/10/13 15:10:36;;;;;;;0.00;0.00;;;;;;;;;;5026169;28;20068;-71
2023/10/13 15:13:05;;;;;;;0.10;0.10;;;;;;;;;;5015547;28;20541;-71
2023/10/13 15:15:32;;;;;;;0.63;0.63;;;;;;;;;;5009599;28;20182;-71
2023/10/13 15:18:00;;;;;;;0.00;0.00;;;;;;;;;;5012117;28;20455;-71
2023/10/13 15:20:28;;;;;;;0.17;0.17;;;;;;;;;;5021346;28;20052;-71
2023/10/13 15:22:59;;;;;;;0.00;0.00;;;;;;;;;;5023687;28;20503;-71
2023/10/13 15:25:38;;;;;;;1.85;1.27;;;;;;;;;;5022314;28;20057;-71
2023/10/13 15:28:09;;;;;;;0.00;0.00;;;;;;;;;;5024573;28;20041;-71
2023/10/13 15:30:56;;;;;;;0.00;0.00;;;;;;;;;;5025033;28;20057;-70
2023/10/13 15:33:25;;;;;;;0.00;0.00;;;;;;;;;;5021357;28;20049;-70
2023/10/13 15:35:53;;;;;;;0.22;0.22;;;;;;;;;;5022852;28;20045;-70
2023/10/13 15:38:24;;;;;;;0.20;0.05;;;;;;;;;;5024515;28;20053;-70
2023/10/13 15:40:54;;;;;;;1.42;0.30;;;;;;;;;;5021947;28;20053;-70
2023/10/13 15:43:22;;;;;;;0.52;0.17;;;;;;;;;;5024633;28;20060;-70
2023/10/13 15:45:50;;;;;;;0.35;0.35;;;;;;;;;;5022725;28;20064;-70
2023/10/13 15:48:17;;;;;;;0.40;0.40;;;;;;;;;;5024052;28;20546;-70
2023/10/13 15:50:49;;;;;;;0.47;0.38;;;;;;;;;;5023914;28;20534;-70
2023/10/13 15:53:17;;;;;;;0.10;0.10;;;;;;;;;;5025444;28;20148;-69
2023/10/13 15:55:45;;;;;;;1.13;0.70;;;;;;;;;;5022764;28;20127;-69
2023/10/13 15:58:13;;;;;;;0.00;0.00;;;;;;;;;;5013210;28;20046;-70
2023/10/13 16:00:41;;;;;;;7.07;6.45;;;;;;;;;;5016108;28;20577;-70
2023/10/13 16:03:12;;;;;;;3.13;0.32;;;;;;;;;;5012088;28;20058;-70
2023/10/13 16:05:42;;;;;;;0.60;0.60;;;;;;;;;;5025824;28;20064;-70
2023/10/13 16:08:11;;;;;;;0.57;0.52;;;;;;;;;;5024296;28;20345;-70
2023/10/13 16:10:39;;;;;;;0.52;0.40;;;;;;;;;;5025763;28;20042;-70
2023/10/13 16:13:14;;;;;;;0.20;0.20;;;;;;;;;;5023043;28;20507;-70
2023/10/13 16:15:42;;;;;;;0.00;0.00;;;;;;;;;;5023825;28;20148;-70
2023/10/13 16:18:11;;;;;;;0.00;0.00;;;;;;;;;;5024240;28;20053;-70
2023/10/13 16:20:39;;;;;;;0.43;0.43;;;;;;;;;;5023670;28;20053;-70
2023/10/13 16:23:08;;;;;;;1.38;0.98;;;;;;;;;;5026872;28;20046;-70
2023/10/13 16:25:36;;;;;;;0.77;0.77;;;;;;;;;;5024543;28;20045;-70
2023/10/13 16:28:05;;;;;;;0.00;0.00;;;;;;;;;;5019228;28;20053;-71
2023/10/13 16:30:32;;;;;;;0.08;0.08;;;;;;;;;;5023501;28;20470;-70
2023/10/13 16:33:00;;;;;;;3.25;3.00;;;;;;;;;;5026340;28;20065;-69
2023/10/13 16:35:33;;;;;;;0.90;0.30;;;;;;;;;;5017424;28;20503;-70
2023/10/13 16:38:06;;;;;;;0.15;0.15;;;;;;;;;;5024296;28;20045;-70
2023/10/13 16:40:34;;;;;;;0.03;0.03;;;;;;;;;;5020136;28;20065;-71
2023/10/13 16:43:02;;;;;;;0.20;0.20;;;;;;;;;;5015999;28;20107;-70
2023/10/13 16:45:31;;;;;;;0.00;0.00;;;;;;;;;;5024868;28;20054;-70
2023/10/13 16:48:00;;;;;;;0.10;0.10;;;;;;;;;;5025627;28;20499;-70
2023/10/13 16:50:31;;;;;;;0.00;0.00;;;;;;;;;;5021144;28;20128;-70
2023/10/13 16:52:59;;;;;;;0.00;0.00;;;;;;;;;;5026100;28;20060;-70
2023/10/13 16:55:28;;;;;;;0.00;0.00;;;;;;;;;;5025927;28;20048;-71
2023/10/13 16:57:56;;;;;;;0.95;0.45;;;;;;;;;;5026663;28;20053;-70
2023/10/13 17:00:26;;;;;;;0.00;0.00;;;;;;;;;;5023778;28;20518;-70
2023/10/13 17:02:55;;;;;;;0.00;0.00;;;;;;;;;;5012326;28;20710;-71
2023/10/13 17:05:27;;;;;;;0.25;0.17;;;;;;;;;;5018524;28;20053;-71
2023/10/13 17:07:58;;;;;;;0.10;0.10;;;;;;;;;;5020089;28;20049;-71
2023/10/13 17:10:28;;;;;;;0.20;0.15;;;;;;;;;;5014302;28;20056;-71
2023/10/13 17:12:57;;;;;;;1.95;1.65;;;;;;;;;;5022554;28;20135;-71
2023/10/13 17:15:25;;;;;;;0.32;0.32;;;;;;;;;;5027608;28;20107;-71
2023/10/13 17:17:53;;;;;;;0.00;0.00;;;;;;;;;;5024995;28;20796;-70
2023/10/13 17:20:21;;;;;;;0.38;0.35;;;;;;;;;;5022611;28;20045;-73
2023/10/13 17:22:49;;;;;;;0.10;0.10;;;;;;;;;;5016992;28;20080;-74
2023/10/13 17:25:16;;;;;;;0.13;0.13;;;;;;;;;;5022101;28;20060;-73
2023/10/13 17:27:45;;;;;;;0.20;0.20;;;;;;;;;;5022581;28;20049;-72
2023/10/13 17:30:13;;;;;;;0.00;0.00;;;;;;;;;;5014888;28;20057;-73
2023/10/13 17:32:44;;;;;;;1.33;1.30;;;;;;;;;;5012939;28;20407;-73
2023/10/13 17:35:13;;;;;;;0.15;0.15;;;;;;;;;;5020590;28;20081;-72
2023/10/13 17:37:44;;;;;;;0.10;0.10;;;;;;;;;;5015343;28;20123;-72
2023/10/13 17:40:15;;;;;;;5.28;5.00;;;;;;;;;;5017168;28;20381;-72
2023/10/13 17:42:47;;;;;;;0.08;0.08;;;;;;;;;;5014738;28;20050;-73
2023/10/13 17:45:14;;;;;;;0.22;0.22;;;;;;;;;;5020780;28;20092;-72
2023/10/13 17:47:45;;;;;;;0.10;0.10;;;;;;;;;;5021297;28;20045;-72
2023/10/13 17:50:16;;;;;;;0.10;0.10;;;;;;;;;;5015229;28;20075;-72
2023/10/13 17:52:48;;;;;;;0.10;0.10;;;;;;;;;;5010354;28;20049;-73
2023/10/13 17:55:18;;;;;;;4.43;3.22;;;;;;;;;;5016682;28;20578;-75
2023/10/13 17:57:48;;;;;;;0.28;0.28;;;;;;;;;;5011570;28;20408;-72
2023/10/13 18:00:22;;;;;;;0.00;0.00;;;;;;;;;;5018433;28;20141;-73
2023/10/13 18:02:54;;;;;;;2.65;2.55;;;;;;;;;;5014292;28;20053;-72
2023/10/13 18:05:22;;;;;;;0.00;0.00;;;;;;;;;;5021598;28;20050;-75
2023/10/13 18:07:49;;;;;;;0.20;0.20;;;;;;;;;;5016862;28;20050;-72
2023/10/13 18:10:17;;;;;;;1.30;0.32;;;;;;;;;;5020073;28;20446;-72
2023/10/13 18:12:46;;;;;;;0.90;0.90;;;;;;;;;;5018149;28;20061;-73
2023/10/13 18:15:17;;;;;;;0.30;0.30;;;;;;;;;;5017548;28;20050;-76
2023/10/13 18:17:45;;;;;;;1.55;1.45;;;;;;;;;;5016900;28;20056;-73
2023/10/13 18:20:19;;;;;;;0.15;0.15;;;;;;;;;;5018089;28;20041;-73
2023/10/13 18:22:46;;;;;;;0.20;0.20;;;;;;;;;;5026369;28;20049;-75
2023/10/13 18:25:14;;;;;;;0.13;0.13;;;;;;;;;;5018986;28;20077;-73
2023/10/13 18:27:42;;;;;;;0.20;0.20;;;;;;;;;;5021982;28;20412;-73
2023/10/13 18:30:13;;;;;;;0.55;0.55;;;;;;;;;;5018707;28;20046;-74
2023/10/13 18:32:41;;;;;;;0.28;0.28;;;;;;;;;;5015805;28;20144;-75
2023/10/13 18:35:11;;;;;;;1.65;1.42;;;;;;;;;;5022239;28;20045;-73
2023/10/13 18:37:41;;;;;;;1.30;1.20;;;;;;;;;;5022145;28;20192;-73
2023/10/13 18:40:12;;;;;;;0.00;0.00;;;;;;;;;;5019381;28;20041;-75
2023/10/13 18:42:47;;;;;;;0.45;0.45;;;;;;;;;;5013518;28;20053;-73
2023/10/13 18:45:19;;;;;;;0.00;0.00;;;;;;;;;;5022818;28;20068;-74
2023/10/13 18:47:47;;;;;;;0.55;0.55;;;;;;;;;;5027163;28;20057;-73
2023/10/13 18:50:16;;;;;;;0.32;0.32;;;;;;;;;;5024419;28;20152;-73
2023/10/13 18:52:44;;;;;;;0.00;0.00;;;;;;;;;;5022466;28;20100;-73
2023/10/13 18:55:13;;;;;;;0.40;0.32;;;;;;;;;;5022640;28;20341;-73
2023/10/13 18:57:43;;;;;;;0.08;0.08;;;;;;;;;;5021321;28;20041;-74
2023/10/13 19:00:15;;;;;;;0.10;0.10;;;;;;;;;;5024109;28;20046;-74
2023/10/13 19:02:43;;;;;;;;;;;;;;;;;;5022654;28;20046;-75
2023/10/13 19:05:10;;;;;;;0.10;0.10;;;;;;;;;;5026631;28;20406;-73
2023/10/13 19:07:38;;;;;;;9.65;9.00;;;;;;;;;;5020654;28;20435;-73